Yarmouth Port, MA (02675)

7:33 PM EDT on September 03, 2015 (GMT -0400)
WA1FSC - Yarmouth Port | | Change Station
CLOSE
Current Station
Personal Weather Station
Location: Yarmouth, MA
Elevation: 33 ft
Nearby Weather Stations

Elev 33 ft 41.71 °N, 70.23 °W | Updated 14 minutes ago

Clear
Clear
72.5 °F
Feels Like 71 °F
N
0.0
Wind Variable Wind from ESE

Today
High -- | Low -- °F
--% Chance of Precip.
Yesterday
High -- | Low -- °F
Precip. -- in
6:08 AM 7:11 PM
Waning Gibbous, 66% visible
Pressure 29.85 in
Visibility 6.0 miles
Clouds Clear
Heat Index 71 °F
Dew Point 68 °F
Humidity 87%
Rainfall 0.00 in
Snow Depth Not available.
UV 0 out of 12
Pollen 8.60 out of 12
Air Quality Not available.
Flu Activity Not available.
METAR KHYA 032256Z 00000KT 6SM HZ CLR 23/20 A2985 RMK AO2 SLP108 T02330200
Pressure 29.85 in
Visibility 6.0 miles
Clouds Clear
Heat Index 71 °F
Dew Point 68 °F
Humidity 87%
Rainfall 0.00 in
Snow Depth Not available.
UV 0 out of 12
Pollen 8.60 out of 12
Air Quality Not available.
Flu Activity Not available.
METAR KHYA 032256Z 00000KT 6SM HZ CLR 23/20 A2985 RMK AO2 SLP108 T02330200

10-Day Weather Forecast

×

Almanac

Astronomy

Sep. 03, 2015 Rise Set
Actual Time
Civil Twilight
Nautical Twilight
Astronomical Twilight
Moon
Length of Visible Light
Length of Day
Tomorrow will be .
, % of the Moon is Illuminated

Today's Extremes

State Highs State Lows

Community

WunderPhotos

Upload Photos

1,852,063 photos uploaded!

WunderBlogs® & News

Nearby

Air Quality

  Air Quality AQ Index Pollutant
Not available.

Snow Depth

Station Depth Elevation

Earthquake Activity

City Distance Mag. Time & Date
Minimum magnitude displayed is 2.5.

Coastal Water Temperatures

Place Temperature

Stations

Nearby Weather Stations

Station Location Temp. Windchill Dew Point Humidity Wind Precip. Elev Updated Type